Time;durP1;ratioP1;P1;durP2;ratioP2;P2;SDS_P1;SDS_P2;PMS_P1;PMS_P2;Temp;Humidity;BMP_temperature;BMP_pressure;BME280_temperature;BME280_humidity;BME280_pressure;Samples;Min_cycle;Max_cycle;Signal;HPM_P1;HPM_P2
2022/09/15 00:00:56;;;;;;;9.28;7.12;;;;;;;12.38;100.00;98551.01;1681138;84;21177;-69
2022/09/15 00:03:22;;;;;;;;;;;;;;;12.39;100.00;98554.80;1689973;84;21672;-68
2022/09/15 00:05:49;;;;;;;10.20;7.28;;;;;;;12.39;100.00;98545.80;1685359;84;20143;-68
2022/09/15 00:08:15;;;;;;;9.83;8.05;;;;;;;12.35;100.00;98547.55;1654290;86;21073;-70
2022/09/15 00:10:59;;;;;;;10.10;8.05;;;;;;;12.34;100.00;98543.19;1679950;84;21099;-71
2022/09/15 00:13:26;;;;;;;10.48;8.85;;;;;;;12.36;100.00;98546.44;1678316;84;21098;-69
2022/09/15 00:15:52;;;;;;;10.32;9.03;;;;;;;12.34;100.00;98541.83;1668695;85;21067;-69
2022/09/15 00:18:19;;;;;;;12.03;9.68;;;;;;;12.29;100.00;98538.66;1671183;85;21535;-69
2022/09/15 00:20:45;;;;;;;10.15;8.65;;;;;;;12.29;100.00;98541.98;1673651;85;21117;-68
2022/09/15 00:23:13;;;;;;;10.95;8.60;;;;;;;12.30;100.00;98542.20;1635680;86;21609;-69
2022/09/15 00:25:44;;;;;;;9.63;8.18;;;;;;;12.31;100.00;98542.45;1676025;84;21718;-68
2022/09/15 00:28:12;;;;;;;12.25;8.25;;;;;;;12.31;100.00;98546.00;1639124;86;21027;-69
2022/09/15 00:30:46;;;;;;;11.00;8.78;;;;;;;12.31;100.00;98546.55;1677030;84;21482;-69
2022/09/15 00:33:14;;;;;;;10.60;9.38;;;;;;;12.29;100.00;98544.13;1672085;84;21007;-69
2022/09/15 00:35:41;;;;;;;10.95;8.95;;;;;;;12.24;100.00;98546.19;1670369;84;21075;-69
2022/09/15 00:38:09;;;;;;;11.65;8.78;;;;;;;12.20;100.00;98550.09;1672890;85;21409;-69
2022/09/15 00:40:52;;;;;;;10.95;8.60;;;;;;;12.21;100.00;98549.54;1670742;84;21763;-69
2022/09/15 00:43:22;;;;;;;9.33;8.05;;;;;;;12.20;100.00;98552.82;1662785;84;21625;-69
2022/09/15 00:49:19;;;;;;;11.47;9.23;;;;;;;12.22;100.00;98534.79;1870808;74;22899;-69
2022/09/15 00:51:59;;;;;;;11.35;9.25;;;;;;;12.09;100.00;98542.46;1855410;75;21031;-69
2022/09/15 00:54:30;;;;;;;9.98;8.75;;;;;;;12.05;100.00;98538.19;1870563;75;21061;-69
2022/09/15 00:56:59;;;;;;;11.48;8.50;;;;;;;12.06;100.00;98537.63;1855720;75;21493;-70
2022/09/15 00:59:27;;;;;;;9.95;8.70;;;;;;;12.05;100.00;98542.27;1862523;75;21569;-69
2022/09/15 01:02:14;;;;;;;10.63;9.30;;;;;;;12.05;100.00;98535.45;1876100;75;21488;-69
2022/09/15 01:04:41;;;;;;;12.07;9.08;;;;;;;12.05;100.00;98524.55;1864272;75;21505;-69
2022/09/15 01:07:11;;;;;;;12.13;9.90;;;;;;;12.00;100.00;98523.32;1844441;75;21093;-69
2022/09/15 01:09:54;;;;;;;11.68;9.60;;;;;;;11.93;100.00;98517.50;1851700;75;21061;-69
2022/09/15 01:12:21;;;;;;;10.75;9.18;;;;;;;11.90;100.00;98520.27;1844116;75;21039;-69
2022/09/15 01:14:47;;;;;;;;;;;;;;;11.92;100.00;98522.14;1862640;75;21051;-69
2022/09/15 01:17:34;;;;;;;9.30;8.25;;;;;;;11.95;100.00;98516.62;1862651;75;20119;-69
2022/09/15 01:20:11;;;;;;;;;;;;;;;11.94;100.00;98513.08;1859635;75;21073;-69
2022/09/15 01:23:10;;;;;;;10.23;9.10;;;;;;;11.98;100.00;98509.17;1892087;75;20443;-69
2022/09/15 01:26:16;;;;;;;10.82;8.98;;;;;;;11.98;100.00;98504.53;1848401;75;21696;-69
2022/09/15 01:28:54;;;;;;;11.97;8.98;;;;;;;12.05;100.00;98498.63;1826247;78;21023;-70
2022/09/15 01:33:02;;;;;;;12.45;9.48;;;;;;;12.12;100.00;98494.09;1839527;75;21052;-70
2022/09/15 01:34:14;;;;;;;11.45;9.25;;;;;;;12.21;100.00;98506.70;1855498;75;21097;-69
2022/09/15 01:36:54;;;;;;;9.88;8.85;;;;;;;12.29;100.00;98504.55;1849268;75;21041;-69
2022/09/15 01:39:24;;;;;;;12.28;9.33;;;;;;;12.37;100.00;98500.27;1857042;75;21041;-69
2022/09/15 01:41:55;;;;;;;10.70;9.45;;;;;;;12.42;100.00;98498.23;1846012;75;21526;-69
2022/09/15 01:44:27;;;;;;;12.40;9.23;;;;;;;12.45;100.00;98487.23;1859639;75;20994;-69
2022/09/15 01:46:57;;;;;;;13.22;10.30;;;;;;;12.48;100.00;98481.95;1849439;75;21027;-70
2022/09/15 01:49:30;;;;;;;13.88;9.78;;;;;;;12.56;100.00;98474.11;1853804;75;21088;-69
2022/09/15 01:51:56;;;;;;;14.25;10.08;;;;;;;12.63;100.00;98477.20;1879733;75;21010;-69
2022/09/15 01:54:27;;;;;;;13.08;9.85;;;;;;;12.65;100.00;98468.92;1867932;75;21037;-69
2022/09/15 01:56:54;;;;;;;11.90;8.95;;;;;;;12.68;100.00;98473.75;1864589;75;21467;-69
2022/09/15 01:59:21;;;;;;;13.15;9.40;;;;;;;12.70;100.00;98475.63;1814305;75;21045;-69
2022/09/15 02:01:56;;;;;;;12.15;9.50;;;;;;;12.73;100.00;98472.81;1843357;75;21049;-69
2022/09/15 02:04:28;;;;;;;11.63;9.00;;;;;;;12.77;100.00;98479.25;1850644;75;21055;-69
2022/09/15 02:07:01;;;;;;;12.13;9.35;;;;;;;12.79;100.00;98481.09;1841631;75;21003;-68
2022/09/15 02:09:41;;;;;;;11.68;10.10;;;;;;;12.80;100.00;98488.98;1888319;75;21134;-69
2022/09/15 02:12:31;;;;;;;13.08;9.28;;;;;;;12.78;100.00;98495.34;1864275;75;21021;-69
2022/09/15 02:15:06;;;;;;;11.93;9.70;;;;;;;12.80;100.00;98501.83;1859770;75;21125;-69
2022/09/15 02:17:38;;;;;;;12.68;9.00;;;;;;;12.84;100.00;98492.70;1853116;75;20998;-69
2022/09/15 02:20:14;;;;;;;12.18;9.03;;;;;;;12.86;100.00;98491.00;1867188;75;21104;-69
2022/09/15 02:22:52;;;;;;;10.08;9.08;;;;;;;12.86;100.00;98489.63;1855704;75;21072;-69
2022/09/15 02:25:31;;;;;;;13.28;10.00;;;;;;;12.84;100.00;98487.23;1860529;75;21057;-69
2022/09/15 02:28:02;;;;;;;9.38;8.45;;;;;;;12.81;100.00;98478.87;1870035;75;21639;-69
2022/09/15 02:30:30;;;;;;;13.78;8.98;;;;;;;12.82;100.00;98479.13;1852036;75;21078;-69
2022/09/15 02:33:02;;;;;;;16.60;8.88;;;;;;;12.85;100.00;98479.85;1843921;75;21524;-69
2022/09/15 02:35:29;;;;;;;11.80;8.60;;;;;;;12.86;100.00;98475.42;1847099;77;21047;-69
2022/09/15 02:37:55;;;;;;;;;;;;;;;12.91;100.00;98480.75;1858754;75;21025;-69
2022/09/15 02:40:22;;;;;;;10.48;7.92;;;;;;;12.93;100.00;98474.40;1838475;75;20110;-69
2022/09/15 02:42:57;;;;;;;9.73;8.68;;;;;;;12.92;100.00;98481.00;1828696;77;22325;-69
2022/09/15 02:45:24;;;;;;;11.80;8.78;;;;;;;12.93;100.00;98474.98;1845426;77;22134;-69
2022/09/15 02:47:50;;;;;;;10.50;8.60;;;;;;;12.91;100.00;98462.19;1857408;75;21043;-69
2022/09/15 02:50:17;;;;;;;;;;;;;;;12.90;100.00;98460.02;1863557;75;21109;-70
2022/09/15 02:52:44;;;;;;;8.58;7.67;;;;;;;12.93;100.00;98468.16;1852952;75;20134;-70
2022/09/15 02:55:11;;;;;;;10.70;8.28;;;;;;;12.91;100.00;98455.36;1861732;75;21085;-68
2022/09/15 02:57:37;;;;;;;10.75;8.33;;;;;;;12.95;100.00;98444.05;1855237;75;21094;-68
2022/09/15 03:00:13;;;;;;;9.95;8.28;;;;;;;12.97;100.00;98441.23;1867855;75;21125;-70
2022/09/15 03:02:42;;;;;;;9.95;8.85;;;;;;;12.98;100.00;98444.77;1851842;75;21077;-70
2022/09/15 03:05:09;;;;;;;10.63;8.53;;;;;;;12.93;100.00;98448.45;1879482;75;21010;-69
2022/09/15 03:07:36;;;;;;;10.88;7.90;;;;;;;12.93;100.00;98442.98;1879215;75;21586;-69
2022/09/15 03:10:05;;;;;;;8.38;7.25;;;;;;;12.98;100.00;98431.11;1849045;75;21385;-70
2022/09/15 03:12:41;;;;;;;9.10;7.83;;;;;;;13.02;100.00;98424.45;1789491;79;21046;-69
2022/09/15 03:15:09;;;;;;;9.53;7.55;;;;;;;13.07;100.00;98431.14;1774267;78;21090;-69
2022/09/15 03:17:38;;;;;;;10.18;7.87;;;;;;;13.09;100.00;98425.63;1797071;77;21550;-69
2022/09/15 03:20:06;;;;;;;10.72;8.50;;;;;;;13.14;100.00;98424.67;1819284;77;21093;-69
2022/09/15 03:22:34;;;;;;;9.73;8.83;;;;;;;13.13;100.00;98426.59;1774720;79;22234;-70
2022/09/15 03:25:00;;;;;;;11.80;8.38;;;;;;;13.06;100.00;98431.70;1812550;78;21062;-70
2022/09/15 03:27:27;;;;;;;10.38;7.40;;;;;;;13.02;100.00;98437.55;1805534;79;21114;-69
2022/09/15 03:29:53;;;;;;;;;;;;;;;12.99;100.00;98432.73;1781429;78;21113;-70
2022/09/15 03:32:19;;;;;;;7.87;6.80;;;;;;;12.98;100.00;98421.00;1815685;77;20160;-70
2022/09/15 03:34:46;;;;;;;;;;;;;;;12.95;100.00;98407.98;1780710;78;21093;-70
2022/09/15 03:37:12;;;;;;;11.10;7.47;;;;;;;12.95;100.00;98395.69;1815298;79;20140;-69
2022/09/15 03:39:39;;;;;;;;;;;;;;;12.91;100.00;98391.17;1821193;79;21050;-70
2022/09/15 03:42:05;;;;;;;9.78;8.03;;;;;;;12.95;100.00;98404.44;1813287;79;20454;-69
2022/09/15 03:44:32;;;;;;;9.90;8.70;;;;;;;12.94;100.00;98413.19;1820351;78;22456;-69
2022/09/15 03:46:59;;;;;;;9.98;8.98;;;;;;;12.96;100.00;98412.89;1799095;78;21041;-70
2022/09/15 03:49:26;;;;;;;11.78;8.18;;;;;;;12.94;100.00;98413.75;1800106;79;21168;-70
2022/09/15 03:51:53;;;;;;;11.50;8.25;;;;;;;12.89;100.00;98420.16;1809786;78;21046;-69
2022/09/15 03:58:00;;;;;;;;;;;;;;;13.02;100.00;98423.08;1705265;83;21038;-78
2022/09/15 04:00:26;;;;;;;9.33;7.45;;;;;;;13.09;100.00;98432.98;1707644;83;20448;-78
2022/09/15 04:02:53;;;;;;;;;;;;;;;13.07;100.00;98437.97;1708879;83;21358;-75
2022/09/15 04:05:20;;;;;;;10.87;8.17;;;;;;;13.04;100.00;98444.86;1675775;83;20119;-75
2022/09/15 04:07:46;;;;;;;12.45;7.85;;;;;;;12.95;100.00;98430.39;1753648;80;21750;-72
2022/09/15 04:10:13;;;;;;;11.35;8.48;;;;;;;12.97;100.00;98429.49;1748786;81;21562;-72
2022/09/15 04:12:40;;;;;;;10.05;8.90;;;;;;;12.98;100.00;98423.73;1764793;80;21028;-75
2022/09/15 04:15:08;;;;;;;9.35;8.40;;;;;;;13.00;100.00;98430.81;1742472;80;21026;-74
2022/09/15 04:17:35;;;;;;;8.43;7.53;;;;;;;13.01;100.00;98444.13;1736299;80;21042;-74
2022/09/15 04:22:50;;;;;;;10.00;8.53;;;;;;;13.12;100.00;98439.20;1779164;79;22764;-71
2022/09/15 04:25:16;;;;;;;;;;;;;;;13.09;100.00;98446.11;1752135;81;21080;-71
2022/09/15 04:27:43;;;;;;;12.03;9.15;;;;;;;13.12;100.00;98448.20;1744176;80;20162;-71
2022/09/15 04:30:10;;;;;;;12.10;8.78;;;;;;;13.07;100.00;98451.08;1747324;81;20990;-71
2022/09/15 04:32:36;;;;;;;10.68;8.15;;;;;;;13.12;100.00;98453.67;1747348;81;21529;-73
2022/09/15 04:35:03;;;;;;;10.85;8.30;;;;;;;13.21;100.00;98449.03;1755007;81;21041;-72
2022/09/15 04:37:30;;;;;;;10.30;8.43;;;;;;;13.32;100.00;98438.01;1750009;80;21638;-73
2022/09/15 04:39:57;;;;;;;9.75;8.18;;;;;;;13.41;100.00;98419.70;1737249;81;21041;-73
2022/09/15 04:42:24;;;;;;;9.00;7.90;;;;;;;13.49;100.00;98413.19;1753897;80;21726;-72
2022/09/15 04:44:50;;;;;;;12.03;8.45;;;;;;;13.53;100.00;98405.39;1753998;82;21544;-72
2022/09/15 04:47:17;;;;;;;;;;;;;;;13.59;100.00;98410.12;1755914;80;21083;-72
2022/09/15 04:49:44;;;;;;;11.65;8.33;;;;;;;13.60;100.00;98404.34;1753288;81;20186;-72
2022/09/15 04:52:11;;;;;;;11.45;7.78;;;;;;;13.59;100.00;98415.02;1753094;80;21777;-72
2022/09/15 04:54:37;;;;;;;9.45;8.10;;;;;;;13.64;100.00;98412.11;1754248;82;21014;-68
2022/09/15 04:57:04;;;;;;;10.03;7.75;;;;;;;13.67;100.00;98405.21;1753709;80;21560;-71
2022/09/15 04:59:30;;;;;;;9.55;7.83;;;;;;;13.73;100.00;98398.44;1752433;82;20980;-72
2022/09/15 05:01:57;;;;;;;;;;;;;;;13.77;100.00;98405.67;1756997;80;21646;-72
2022/09/15 05:04:23;;;;;;;10.05;7.62;;;;;;;13.81;100.00;98400.36;1745000;82;20506;-73
2022/09/15 05:06:50;;;;;;;9.15;6.85;;;;;;;13.82;100.00;98409.59;1749008;80;21725;-70
2022/09/15 05:09:16;;;;;;;10.93;7.92;;;;;;;13.84;100.00;98399.15;1753890;82;20975;-71
2022/09/15 05:11:44;;;;;;;9.20;8.30;;;;;;;13.89;100.00;98400.89;1751752;80;21077;-68
2022/09/15 05:14:10;;;;;;;;;;;;;;;13.90;100.00;98401.13;1746962;82;21596;-69
2022/09/15 05:16:36;;;;;;;11.63;7.42;;;;;;;13.98;100.00;98396.77;1747982;81;20114;-69
2022/09/15 05:19:03;;;;;;;8.58;7.58;;;;;;;14.04;100.00;98400.37;1753749;81;21025;-68
2022/09/15 05:21:30;;;;;;;10.90;6.97;;;;;;;14.13;100.00;98397.06;1752518;80;21665;-69
2022/09/15 05:23:56;;;;;;;;;;;;;;;14.18;100.00;98398.80;1752007;81;20982;-69
2022/09/15 05:26:25;;;;;;;8.63;6.45;;;;;;;14.23;100.00;98383.02;1727516;81;20159;-71
2022/09/15 05:28:51;;;;;;;9.48;6.53;;;;;;;14.23;100.00;98391.23;1745072;80;21006;-68
2022/09/15 05:31:21;;;;;;;7.30;6.25;;;;;;;14.27;100.00;98389.45;1781715;80;21051;-69
2022/09/15 05:33:48;;;;;;;8.38;7.00;;;;;;;14.31;100.00;98385.48;1740450;82;21007;-69
2022/09/15 05:36:16;;;;;;;8.80;6.75;;;;;;;14.31;100.00;98380.02;1709347;82;21039;-69
2022/09/15 05:38:42;;;;;;;7.50;6.53;;;;;;;14.33;100.00;98378.54;1692066;85;21071;-69
2022/09/15 05:41:16;;;;;;;;;;;;;;;14.40;100.00;98384.89;1694453;83;21075;-69
2022/09/15 05:43:43;;;;;;;7.72;5.85;;;;;;;14.43;100.00;98381.50;1684254;84;20127;-69
2022/09/15 05:46:10;;;;;;;7.75;6.03;;;;;;;14.39;100.00;98386.83;1683590;83;22404;-69
2022/09/15 05:48:37;;;;;;;7.62;6.58;;;;;;;14.40;100.00;98392.55;1691169;85;22188;-68
2022/09/15 05:51:04;;;;;;;10.00;6.92;;;;;;;14.39;100.00;98387.39;1688038;83;21134;-69
2022/09/15 05:53:33;;;;;;;10.18;7.33;;;;;;;14.38;100.00;98403.01;1676405;84;21427;-69
2022/09/15 05:56:04;;;;;;;7.55;6.70;;;;;;;14.43;100.00;98414.35;1684856;83;21145;-71
2022/09/15 05:58:30;;;;;;;10.05;6.42;;;;;;;14.52;100.00;98424.72;1658737;86;22338;-70
2022/09/15 06:01:06;;;;;;;8.45;6.60;;;;;;;14.62;100.00;98409.28;1660089;85;21055;-70
2022/09/15 06:03:34;;;;;;;9.70;6.40;;;;;;;14.71;100.00;98403.18;1668495;85;21019;-71
2022/09/15 06:06:01;;;;;;;9.25;6.42;;;;;;;14.83;100.00;98405.22;1691477;83;21377;-71
2022/09/15 06:08:38;;;;;;;9.80;7.58;;;;;;;14.90;100.00;98405.49;1691585;85;21107;-70
2022/09/15 06:11:10;;;;;;;7.50;6.72;;;;;;;14.94;100.00;98403.70;1663439;85;21114;-70
2022/09/15 06:13:40;;;;;;;8.98;6.80;;;;;;;14.95;100.00;98401.17;1681532;84;21074;-70
2022/09/15 06:16:13;;;;;;;8.15;7.12;;;;;;;15.00;100.00;98402.36;1690224;83;21115;-70
2022/09/15 06:18:40;;;;;;;8.63;6.40;;;;;;;15.10;100.00;98403.34;1691848;84;21032;-71
2022/09/15 06:21:15;;;;;;;9.40;7.00;;;;;;;15.17;100.00;98406.34;1681606;83;21561;-69
2022/09/15 06:23:42;;;;;;;7.85;6.37;;;;;;;15.23;100.00;98391.30;1686287;85;21550;-70
2022/09/15 06:26:12;;;;;;;8.90;6.60;;;;;;;15.27;100.00;98385.38;1722663;82;21094;-70
2022/09/15 06:28:41;;;;;;;9.30;6.70;;;;;;;15.28;100.00;98389.73;1726171;81;20935;-69
2022/09/15 06:31:11;;;;;;;10.55;7.20;;;;;;;15.29;100.00;98385.87;1741919;81;20983;-70
2022/09/15 06:33:47;;;;;;;9.98;7.47;;;;;;;15.25;100.00;98378.08;1727205;81;21074;-75
2022/09/15 06:36:14;;;;;;;10.05;6.78;;;;;;;15.19;100.00;98382.73;1710703;82;21083;-73
2022/09/15 06:38:41;;;;;;;8.05;6.50;;;;;;;15.17;100.00;98385.80;1714530;82;21562;-74
2022/09/15 06:41:07;;;;;;;8.38;6.90;;;;;;;15.19;100.00;98379.42;1741191;81;21063;-74
2022/09/15 06:43:35;;;;;;;8.98;6.45;;;;;;;15.21;100.00;98377.14;1740733;81;21066;-73
2022/09/15 06:46:05;;;;;;;9.58;6.17;;;;;;;15.22;100.00;98380.12;1733820;82;21565;-75
2022/09/15 06:48:33;;;;;;;8.38;6.42;;;;;;;15.25;100.00;98381.38;1718155;83;22351;-76
2022/09/15 06:51:00;;;;;;;11.97;6.97;;;;;;;15.29;100.00;98374.91;1733966;81;21082;-76
2022/09/15 06:53:34;;;;;;;10.98;6.78;;;;;;;15.30;100.00;98372.97;1717409;81;21619;-76
2022/09/15 06:56:05;;;;;;;10.60;6.20;;;;;;;15.32;100.00;98370.12;1714972;81;21138;-76
2022/09/15 06:58:37;;;;;;;8.95;6.80;;;;;;;15.36;100.00;98370.25;1721566;82;21098;-75
2022/09/15 07:01:11;;;;;;;10.75;6.97;;;;;;;15.41;100.00;98365.91;1722751;82;21103;-75
2022/09/15 07:03:39;;;;;;;11.53;6.87;;;;;;;15.45;100.00;98369.59;1725763;81;20991;-72
2022/09/15 07:06:06;;;;;;;8.38;6.85;;;;;;;15.52;100.00;98360.88;1740345;81;21559;-73
2022/09/15 07:08:33;;;;;;;7.72;6.67;;;;;;;15.62;100.00;98365.38;1741870;82;21011;-72
2022/09/15 07:11:01;;;;;;;11.12;6.00;;;;;;;15.73;100.00;98361.04;1739096;81;21563;-72
2022/09/15 07:13:29;;;;;;;11.00;6.78;;;;;;;15.83;100.00;98370.80;1740943;82;21009;-71
2022/09/15 07:15:57;;;;;;;9.28;7.03;;;;;;;15.95;100.00;98365.33;1741807;81;20997;-70
2022/09/15 07:18:24;;;;;;;9.95;6.67;;;;;;;16.07;100.00;98358.50;1742070;82;21820;-70
2022/09/15 07:20:50;;;;;;;8.23;6.35;;;;;;;16.15;100.00;98365.04;1735258;82;20994;-71
2022/09/15 07:23:17;;;;;;;7.72;6.40;;;;;;;16.24;100.00;98370.65;1738167;81;20986;-71
2022/09/15 07:25:44;;;;;;;9.18;6.70;;;;;;;16.33;100.00;98363.09;1733512;82;20999;-71
2022/09/15 07:28:11;;;;;;;9.15;6.60;;;;;;;16.40;100.00;98364.70;1738496;82;21070;-71
2022/09/15 07:30:38;;;;;;;10.53;7.05;;;;;;;16.46;100.00;98356.24;1741139;81;21609;-70
2022/09/15 07:33:06;;;;;;;8.98;7.28;;;;;;;16.48;100.00;98356.12;1744079;82;21554;-71
2022/09/15 07:35:33;;;;;;;7.90;7.00;;;;;;;16.44;100.00;98356.00;1738563;82;21708;-71
2022/09/15 07:37:59;;;;;;;11.40;6.62;;;;;;;16.46;100.00;98352.13;1732870;81;21105;-71
2022/09/15 07:40:27;;;;;;;8.10;6.97;;;;;;;16.51;100.00;98350.53;1739615;81;21001;-71
2022/09/15 07:42:54;;;;;;;11.48;7.30;;;;;;;16.54;100.00;98349.27;1742084;81;21501;-71
2022/09/15 07:45:21;;;;;;;10.60;7.03;;;;;;;16.57;100.00;98352.73;1759623;81;21011;-72
2022/09/15 07:47:47;;;;;;;8.93;7.10;;;;;;;16.61;100.00;98350.91;1735706;82;21132;-71
2022/09/15 07:50:14;;;;;;;11.60;7.20;;;;;;;16.61;100.00;98352.28;1745142;81;20962;-71
2022/09/15 07:52:40;;;;;;;10.28;7.10;;;;;;;16.61;100.00;98356.40;1743028;81;21483;-70
2022/09/15 07:55:08;;;;;;;;;;;;;;;16.64;100.00;98357.65;1732495;82;20997;-72
2022/09/15 07:57:34;;;;;;;7.25;6.28;;;;;;;16.70;100.00;98355.69;1719856;82;20410;-72
2022/09/15 08:00:02;;;;;;;10.45;6.78;;;;;;;16.67;100.00;98347.34;1721736;81;20999;-72
2022/09/15 08:02:30;;;;;;;10.05;6.92;;;;;;;16.71;100.00;98352.38;1737562;81;21065;-72
2022/09/15 08:04:57;;;;;;;9.33;6.97;;;;;;;16.74;100.00;98347.55;1742876;81;20971;-71
2022/09/15 08:07:23;;;;;;;9.28;6.33;;;;;;;16.85;100.00;98350.88;1747175;81;21032;-71
2022/09/15 08:09:50;;;;;;;9.83;6.45;;;;;;;16.97;100.00;98347.28;1747195;82;21028;-70
2022/09/15 08:12:16;;;;;;;10.30;7.20;;;;;;;17.11;100.00;98342.20;1745079;81;21495;-71
2022/09/15 08:14:43;;;;;;;;;;;;;;;17.25;100.00;98345.37;1749488;81;21466;-72
2022/09/15 08:17:09;;;;;;;10.55;7.42;;;;;;;17.37;100.00;98350.84;1745590;81;20394;-72
2022/09/15 08:19:35;;;;;;;;;;;;;;;17.35;100.00;98349.59;1748282;82;21517;-71
2022/09/15 08:22:04;;;;;;;10.10;7.50;;;;;;;17.39;100.00;98354.03;1743973;81;20119;-73
2022/09/15 08:24:31;;;;;;;8.50;7.60;;;;;;;17.39;100.00;98347.15;1739243;81;21042;-73
2022/09/15 08:26:57;;;;;;;11.12;8.05;;;;;;;17.43;100.00;98347.85;1739484;81;21062;-72
2022/09/15 08:29:24;;;;;;;13.53;7.80;;;;;;;17.47;100.00;98345.41;1739762;82;21066;-72
2022/09/15 08:31:51;;;;;;;9.58;6.92;;;;;;;17.60;100.00;98347.58;1739671;81;21060;-72
2022/09/15 08:34:17;;;;;;;9.73;6.78;;;;;;;17.72;100.00;98344.17;1739063;81;21046;-72
2022/09/15 08:36:43;;;;;;;;;;;;;;;17.83;100.00;98349.39;1742702;81;21072;-72
2022/09/15 08:39:10;;;;;;;12.03;7.25;;;;;;;17.90;100.00;98338.57;1740066;82;20139;-72
2022/09/15 08:41:41;;;;;;;9.58;7.58;;;;;;;17.84;100.00;98341.94;1737477;81;21100;-72
2022/09/15 08:44:50;;;;;;;10.05;7.15;;;;;;;17.92;100.00;98340.17;1739412;81;21071;-72
2022/09/15 08:47:35;;;;;;;12.63;7.08;;;;;;;17.97;100.00;98336.58;1734162;81;21142;-72
2022/09/15 08:50:30;;;;;;;8.00;6.53;;;;;;;18.01;100.00;98331.97;1739822;82;21043;-71
2022/09/15 08:53:08;;;;;;;10.50;7.20;;;;;;;18.13;100.00;98347.62;1735592;82;21731;-71
2022/09/15 08:55:53;;;;;;;8.38;7.00;;;;;;;18.24;100.00;98345.36;1731884;81;21047;-72
2022/09/15 08:58:25;;;;;;;9.23;7.78;;;;;;;18.24;100.00;98344.55;1738846;82;21043;-70
2022/09/15 09:01:32;;;;;;;9.38;6.97;;;;;;;18.28;100.00;98335.81;1740829;81;20996;-72
2022/09/15 09:04:22;;;;;;;8.78;6.30;;;;;;;18.34;100.00;98339.89;1730268;81;21090;-72
2022/09/15 09:07:15;;;;;;;9.78;6.85;;;;;;;18.32;100.00;98329.78;1738754;81;21129;-72
2022/09/15 09:10:05;;;;;;;10.78;7.25;;;;;;;18.28;100.00;98328.31;1735663;82;21119;-72
2022/09/15 09:12:46;;;;;;;8.78;7.20;;;;;;;18.29;100.00;98332.68;1735120;81;21079;-71
2022/09/15 09:15:27;;;;;;;8.28;5.83;;;;;;;18.38;100.00;98328.38;1737704;81;21312;-72
2022/09/15 09:18:15;;;;;;;7.03;5.75;;;;;;;18.47;100.00;98317.95;1739353;81;21091;-72
2022/09/15 09:21:17;;;;;;;7.35;6.30;;;;;;;18.54;100.00;98311.27;1738369;82;21427;-71
2022/09/15 09:23:51;;;;;;;9.58;6.97;;;;;;;18.63;100.00;98319.36;1742731;82;21570;-71
2022/09/15 09:26:18;;;;;;;7.85;6.10;;;;;;;18.64;100.00;98317.60;1741030;82;21068;-71
2022/09/15 09:28:56;;;;;;;7.92;6.28;;;;;;;18.71;100.00;98312.83;1731713;82;21824;-72
2022/09/15 09:31:23;;;;;;;7.12;5.12;;;;;;;18.81;100.00;98307.55;1736607;80;21116;-73
2022/09/15 09:34:26;;;;;;;6.05;5.10;;;;;;;18.92;100.00;98313.91;1713477;83;21063;-73
2022/09/15 09:37:00;;;;;;;5.50;4.20;;;;;;;18.98;100.00;98311.08;1715913;82;21064;-73
2022/09/15 09:39:27;;;;;;;7.50;4.72;;;;;;;19.12;100.00;98304.48;1694074;83;21049;-71
2022/09/15 09:41:53;;;;;;;7.40;4.72;;;;;;;19.24;100.00;98308.46;1735830;81;21047;-70
2022/09/15 09:44:20;;;;;;;6.75;4.72;;;;;;;19.33;100.00;98307.68;1743882;82;21044;-71
2022/09/15 09:46:47;;;;;;;5.55;3.95;;;;;;;19.33;100.00;98311.82;1746263;81;21657;-71
2022/09/15 09:49:21;;;;;;;7.25;3.40;;;;;;;19.29;100.00;98313.12;1736625;81;21082;-71
2022/09/15 09:52:00;;;;;;;5.45;3.47;;;;;;;19.27;100.00;98316.04;1734482;81;21074;-70
2022/09/15 09:54:27;;;;;;;6.12;3.83;;;;;;;19.30;100.00;98317.49;1718695;82;21082;-71
2022/09/15 09:56:55;;;;;;;5.90;3.62;;;;;;;19.31;100.00;98317.69;1721605;81;21063;-73
2022/09/15 09:59:45;;;;;;;6.17;3.35;;;;;;;19.30;100.00;98316.11;1736530;82;21588;-72
2022/09/15 10:02:17;;;;;;;5.67;3.47;;;;;;;19.31;100.00;98316.30;1739921;81;20995;-73
2022/09/15 10:04:49;;;;;;;5.25;3.87;;;;;;;19.33;100.00;98307.10;1745005;81;20993;-73
2022/09/15 10:07:19;;;;;;;6.42;3.98;;;;;;;19.46;100.00;98318.80;1741812;81;21082;-70
2022/09/15 10:09:57;;;;;;;5.22;4.00;;;;;;;19.50;100.00;98327.16;1720166;82;21484;-70
2022/09/15 10:12:32;;;;;;;5.20;3.72;;;;;;;19.57;100.00;98328.09;1739930;81;21018;-70
2022/09/15 10:15:01;;;;;;;5.20;3.52;;;;;;;19.61;100.00;98326.78;1735517;82;21490;-69
2022/09/15 10:17:42;;;;;;;5.33;4.03;;;;;;;19.67;100.00;98317.03;1737202;82;21004;-70
2022/09/15 10:20:31;;;;;;;5.45;3.77;;;;;;;19.65;100.00;98307.75;1747446;82;21011;-70
2022/09/15 10:23:20;;;;;;;5.65;3.90;;;;;;;19.64;100.00;98316.39;1731495;81;21588;-70
2022/09/15 10:25:46;;;;;;;5.97;4.00;;;;;;;19.60;100.00;98305.86;1728593;81;21038;-70
2022/09/15 10:28:24;;;;;;;4.47;3.42;;;;;;;19.57;100.00;98311.54;1731066;83;21070;-71
2022/09/15 10:31:04;;;;;;;6.10;4.05;;;;;;;19.58;100.00;98313.72;1738819;81;21069;-69
2022/09/15 10:33:33;;;;;;;6.83;4.20;;;;;;;19.55;100.00;98303.41;1731324;82;21069;-69
2022/09/15 10:36:06;;;;;;;7.45;4.40;;;;;;;19.46;100.00;98301.45;1744515;82;21158;-70
2022/09/15 10:38:47;;;;;;;6.20;3.95;;;;;;;19.35;100.00;98296.48;1744233;82;21866;-70
2022/09/15 10:41:27;;;;;;;6.95;3.87;;;;;;;19.31;100.00;98294.23;1737814;81;21181;-70
2022/09/15 10:44:42;;;;;;;5.28;3.22;;;;;;;19.37;100.00;98301.08;1731625;82;21062;-70
2022/09/15 10:47:37;;;;;;;5.60;3.95;;;;;;;19.43;100.00;98291.95;1730545;81;21118;-69
2022/09/15 10:50:12;;;;;;;5.97;3.90;;;;;;;19.42;100.00;98289.53;1736868;81;21056;-69
2022/09/15 10:52:53;;;;;;;4.80;3.65;;;;;;;19.43;100.00;98291.95;1742232;81;21096;-69
2022/09/15 10:55:42;;;;;;;5.25;3.45;;;;;;;19.48;100.00;98298.56;1714120;83;21109;-69
2022/09/15 10:58:35;;;;;;;4.72;3.20;;;;;;;19.53;100.00;98297.44;1714151;83;21589;-70
2022/09/15 11:01:13;;;;;;;5.40;3.40;;;;;;;19.57;100.00;98299.69;1734106;82;21140;-72
2022/09/15 11:04:23;;;;;;;4.95;3.70;;;;;;;19.61;100.00;98300.56;1731214;82;21632;-70
2022/09/15 11:07:04;;;;;;;5.72;3.20;;;;;;;19.52;100.00;98286.20;1731193;81;21580;-69
2022/09/15 11:09:39;;;;;;;4.50;3.12;;;;;;;19.41;100.00;98287.38;1731980;81;21101;-70
2022/09/15 11:12:21;;;;;;;4.27;3.10;;;;;;;19.36;100.00;98276.59;1733166;81;21086;-70
2022/09/15 11:15:05;;;;;;;5.90;3.12;;;;;;;19.33;100.00;98281.47;1720869;82;21066;-70
2022/09/15 11:17:53;;;;;;;5.03;3.35;;;;;;;19.31;100.00;98280.44;1730975;81;21109;-71
2022/09/15 11:20:42;;;;;;;;;;;;;;;19.32;100.00;98280.67;1702055;82;21123;-70
2022/09/15 11:23:20;;;;;;;6.08;3.20;;;;;;;19.39;100.00;98276.66;1740633;82;20138;-70
2022/09/15 11:25:52;;;;;;;4.62;3.00;;;;;;;19.36;100.00;98276.59;1739380;82;21023;-69
2022/09/15 11:28:40;;;;;;;5.37;3.40;;;;;;;19.42;100.00;98271.59;1739608;81;21061;-70
2022/09/15 11:31:26;;;;;;;4.33;3.30;;;;;;;19.43;100.00;98269.87;1720821;82;21043;-70
2022/09/15 11:34:06;;;;;;;4.97;3.12;;;;;;;19.41;100.00;98273.59;1739623;82;21028;-70
2022/09/15 11:36:56;;;;;;;6.47;2.75;;;;;;;19.41;100.00;98272.20;1720521;82;22231;-69
2022/09/15 11:39:28;;;;;;;6.03;2.90;;;;;;;19.48;100.00;98264.64;1721843;82;21509;-68
2022/09/15 11:42:12;;;;;;;5.42;3.40;;;;;;;19.57;100.00;98255.53;1732626;82;21087;-68
2022/09/15 11:44:40;;;;;;;4.97;3.55;;;;;;;19.60;100.00;98249.27;1739393;82;21456;-68
2022/09/15 11:47:18;;;;;;;5.17;3.75;;;;;;;19.56;100.00;98238.75;1732398;81;21352;-68
2022/09/15 11:50:11;;;;;;;3.80;3.08;;;;;;;19.49;100.00;98223.44;1725254;82;21111;-68
2022/09/15 11:52:55;;;;;;;3.58;2.60;;;;;;;19.45;100.00;98219.23;1731157;81;22292;-70
2022/09/15 11:55:37;;;;;;;4.40;3.35;;;;;;;19.37;100.00;98236.23;1709786;83;21104;-69
2022/09/15 11:58:41;;;;;;;4.55;3.42;;;;;;;19.30;100.00;98243.58;1729613;81;21054;-69
2022/09/15 12:01:19;;;;;;;3.77;3.15;;;;;;;19.16;100.00;98240.54;1741085;81;21010;-69